createdAt,value
2022-11-02T00:01:43.704Z,73.59
2022-11-02T00:04:10.631Z,73.43
2022-11-02T00:06:37.213Z,73.78
2022-11-02T00:09:03.793Z,72.88
2022-11-02T00:11:30.343Z,72.26
2022-11-02T00:13:56.991Z,73.00
2022-11-02T00:16:25.395Z,71.96
2022-11-02T00:18:55.958Z,72.26
2022-11-02T00:21:24.750Z,71.20
2022-11-02T00:23:51.841Z,71.43
2022-11-02T00:26:18.675Z,71.15
2022-11-02T00:28:45.480Z,71.51
2022-11-02T00:31:12.023Z,71.04
2022-11-02T00:33:38.602Z,70.54
2022-11-02T00:36:05.257Z,70.59
2022-11-02T00:38:32.287Z,70.69
2022-11-02T00:40:59.235Z,70.44
2022-11-02T00:43:25.855Z,71.16
2022-11-02T00:45:52.372Z,70.72
2022-11-02T00:48:18.870Z,71.86
2022-11-02T00:50:45.442Z,72.29
2022-11-02T00:53:11.925Z,73.97
2022-11-02T00:55:38.417Z,75.43
2022-11-02T00:58:05.236Z,74.89
2022-11-02T01:00:32.312Z,75.36
2022-11-02T01:03:02.530Z,75.79
2022-11-02T01:05:29.291Z,75.30
2022-11-02T01:07:55.839Z,75.73
2022-11-02T01:10:23.089Z,75.14
2022-11-02T01:12:50.039Z,75.22
2022-11-02T01:15:16.600Z,74.57
2022-11-02T01:17:43.077Z,75.07
2022-11-02T01:20:10.086Z,74.65
2022-11-02T01:22:36.571Z,75.23
2022-11-02T01:25:03.371Z,74.53
2022-11-02T01:27:29.915Z,74.39
2022-11-02T01:29:56.450Z,74.33
2022-11-02T01:32:22.962Z,74.02
2022-11-02T01:34:49.652Z,73.50
2022-11-02T01:37:16.251Z,73.81
2022-11-02T01:39:42.758Z,73.00
2022-11-02T01:42:23.129Z,72.85
2022-11-02T01:44:49.904Z,73.36
2022-11-02T01:47:31.676Z,72.70
2022-11-02T01:50:02.655Z,72.36
2022-11-02T01:52:32.647Z,72.25
2022-11-02T01:55:07.952Z,72.26
2022-11-02T01:57:35.763Z,72.48
2022-11-02T02:00:10.053Z,72.51
2022-11-02T02:02:40.145Z,72.53
2022-11-02T02:13:06.329Z,73.56
2022-11-02T02:15:48.160Z,73.44
2022-11-02T02:23:44.731Z,74.07
2022-11-02T02:26:17.041Z,74.42
2022-11-02T02:28:47.888Z,74.38
2022-11-02T02:31:29.035Z,74.46
2022-11-02T02:33:58.363Z,74.37
2022-11-02T02:36:29.481Z,74.03
2022-11-02T02:39:10.489Z,74.05
2022-11-02T02:41:39.457Z,74.90
2022-11-02T02:44:09.418Z,74.46
2022-11-02T02:46:50.959Z,73.72
2022-11-02T02:49:22.777Z,74.16
2022-11-02T02:51:49.753Z,73.53
2022-11-02T02:54:23.532Z,74.13
2022-11-02T02:56:55.027Z,73.60
2022-11-02T02:59:32.962Z,73.02
2022-11-02T03:01:59.782Z,71.81
2022-11-02T03:04:26.734Z,71.81
2022-11-02T03:06:55.036Z,71.54
2022-11-02T03:09:24.359Z,71.54
2022-11-02T03:12:04.626Z,71.48
2022-11-02T03:14:43.279Z,71.19
2022-11-02T03:17:09.972Z,71.60
2022-11-02T03:19:39.448Z,71.25
2022-11-02T03:22:13.078Z,70.17
2022-11-02T03:24:47.369Z,69.15
2022-11-02T03:27:20.624Z,69.50
2022-11-02T03:29:54.203Z,68.77
2022-11-02T03:32:32.801Z,67.78
2022-11-02T03:35:01.726Z,67.55
2022-11-02T03:37:33.625Z,67.23
2022-11-02T03:40:18.370Z,66.91
2022-11-02T03:42:45.876Z,67.24
2022-11-02T03:45:12.375Z,65.82
2022-11-02T03:47:39.722Z,65.34
2022-11-02T03:50:08.363Z,65.58
2022-11-02T03:52:38.210Z,65.40
2022-11-02T03:55:08.117Z,65.46
2022-11-02T03:57:39.404Z,64.20
2022-11-02T04:00:10.522Z,64.72
2022-11-02T04:02:37.943Z,64.24
2022-11-02T04:05:04.630Z,65.60
2022-11-02T04:07:58.368Z,65.34
2022-11-02T04:10:26.146Z,65.82
2022-11-02T04:13:11.279Z,67.17
2022-11-02T04:15:37.831Z,68.51
2022-11-02T04:18:22.637Z,68.74
2022-11-02T04:20:50.113Z,70.43
2022-11-02T04:23:35.460Z,71.52
2022-11-02T04:26:01.988Z,70.75
2022-11-02T04:28:28.521Z,71.90
2022-11-02T04:30:55.056Z,70.95
2022-11-02T04:33:33.779Z,71.43
2022-11-02T04:36:01.747Z,71.16
2022-11-02T04:38:40.964Z,70.99
2022-11-02T04:41:30.032Z,71.70
2022-11-02T04:43:56.645Z,70.68
2022-11-02T04:46:24.566Z,70.65
2022-11-02T04:48:51.232Z,70.22
2022-11-02T04:51:18.081Z,70.53
2022-11-02T04:53:44.664Z,70.21
2022-11-02T04:56:11.205Z,70.25
2022-11-02T04:58:37.725Z,70.04
2022-11-02T05:01:05.107Z,70.39
2022-11-02T05:03:31.670Z,70.86
2022-11-02T05:05:58.165Z,71.33
2022-11-02T05:08:24.740Z,71.34
2022-11-02T05:10:54.364Z,71.94
2022-11-02T05:13:20.849Z,71.84
2022-11-02T05:15:47.445Z,70.91
2022-11-02T05:18:18.647Z,71.47
2022-11-02T05:20:50.723Z,70.54
2022-11-02T05:23:17.313Z,70.70
2022-11-02T05:25:43.950Z,69.79
2022-11-02T05:28:10.456Z,69.87
2022-11-02T05:30:36.967Z,70.43
2022-11-02T05:33:04.256Z,69.45
2022-11-02T05:35:31.044Z,70.10
2022-11-02T05:37:57.666Z,70.21
2022-11-02T05:40:24.235Z,69.75
2022-11-02T05:42:50.833Z,70.60
2022-11-02T05:45:21.973Z,69.70
2022-11-02T05:47:51.105Z,69.96
2022-11-02T05:50:17.576Z,70.02
2022-11-02T05:52:44.038Z,69.91
2022-11-02T05:55:10.657Z,70.23
2022-11-02T05:57:37.184Z,69.62
2022-11-02T06:00:04.515Z,69.32
2022-11-02T06:02:31.311Z,68.82
2022-11-02T06:04:57.862Z,68.64
2022-11-02T06:07:24.452Z,68.47
2022-11-02T06:09:50.984Z,67.80
2022-11-02T06:12:17.519Z,68.51
2022-11-02T06:14:44.002Z,68.60
2022-11-02T06:17:10.635Z,67.67
2022-11-02T06:19:37.143Z,67.10
2022-11-02T06:22:06.766Z,67.31
2022-11-02T06:24:33.445Z,68.24
2022-11-02T06:26:59.975Z,68.75
2022-11-02T06:29:26.513Z,68.22
2022-11-02T06:31:53.195Z,67.94
2022-11-02T06:34:23.442Z,67.75
2022-11-02T06:36:49.900Z,68.57
2022-11-02T06:39:16.462Z,68.24
2022-11-02T06:41:42.943Z,69.16
2022-11-02T06:44:09.428Z,69.03
2022-11-02T06:46:36.241Z,68.30
2022-11-02T06:49:02.884Z,68.66
2022-11-02T06:51:29.885Z,69.17
2022-11-02T06:53:56.553Z,69.42
2022-11-02T06:56:23.083Z,69.66
2022-11-02T06:58:50.393Z,68.22
2022-11-02T07:01:20.110Z,68.17
2022-11-02T07:03:47.419Z,66.45
2022-11-02T07:06:14.803Z,67.19
2022-11-02T07:08:42.952Z,66.36
2022-11-02T07:11:13.111Z,67.06
2022-11-02T07:13:40.606Z,66.92
2022-11-02T07:16:07.531Z,66.65
2022-11-02T07:18:35.924Z,66.72
2022-11-02T07:21:03.249Z,67.02
2022-11-02T07:23:30.359Z,66.22
2022-11-02T07:25:59.473Z,65.99
2022-11-02T07:28:29.353Z,66.60
2022-11-02T07:30:56.070Z,67.07
2022-11-02T07:33:22.975Z,67.39
2022-11-02T07:35:54.478Z,67.25
2022-11-02T07:38:22.026Z,66.57
2022-11-02T07:40:51.809Z,67.87
2022-11-02T07:43:18.857Z,67.49
2022-11-02T07:45:46.119Z,66.04
2022-11-02T07:48:13.699Z,65.58
2022-11-02T07:50:40.790Z,66.17
2022-11-02T07:53:08.471Z,65.88
2022-11-02T07:55:35.675Z,65.18
2022-11-02T07:58:04.440Z,65.07
2022-11-02T08:00:37.405Z,64.66
2022-11-02T08:03:05.818Z,64.67
2022-11-02T08:05:38.519Z,64.67
2022-11-02T08:08:06.913Z,65.17
2022-11-02T08:10:37.211Z,65.37
2022-11-02T08:13:05.904Z,65.71
2022-11-02T08:15:32.653Z,64.58
2022-11-02T08:18:03.723Z,64.80
2022-11-02T08:20:31.453Z,64.29
2022-11-02T08:22:58.755Z,64.25
2022-11-02T08:25:25.389Z,64.50
2022-11-02T08:27:52.783Z,65.14
2022-11-02T08:30:19.934Z,65.61
2022-11-02T08:32:46.878Z,64.70
2022-11-02T08:35:13.988Z,63.76
2022-11-02T08:37:40.711Z,63.05
2022-11-02T08:40:08.462Z,62.31
2022-11-02T08:42:35.915Z,61.89
2022-11-02T08:45:02.843Z,62.89
2022-11-02T08:47:30.154Z,62.54
2022-11-02T08:49:56.918Z,61.91
2022-11-02T08:52:24.537Z,62.13
2022-11-02T08:54:52.129Z,61.44
2022-11-02T08:57:19.535Z,61.37
2022-11-02T08:59:46.758Z,60.74
2022-11-02T09:02:13.871Z,60.76
2022-11-02T09:04:40.758Z,60.78
2022-11-02T09:07:08.015Z,61.08
2022-11-02T09:09:35.580Z,61.43
2022-11-02T09:12:02.181Z,60.54
2022-11-02T09:14:28.739Z,60.91
2022-11-02T09:16:55.275Z,60.52
2022-11-02T09:19:21.802Z,60.95
2022-11-02T09:21:49.905Z,61.43
2022-11-02T09:24:16.363Z,61.12
2022-11-02T09:26:42.850Z,60.57
2022-11-02T09:29:09.625Z,60.56
2022-11-02T09:31:36.144Z,59.65
2022-11-02T09:34:02.721Z,58.85
2022-11-02T09:36:29.171Z,58.21
2022-11-02T09:38:55.630Z,58.22
2022-11-02T09:41:48.323Z,58.77
2022-11-02T09:44:27.605Z,57.27
2022-11-02T09:47:40.055Z,51.81
2022-11-02T09:49:41.589Z,55.94
2022-11-02T09:52:11.802Z,54.52
2022-11-02T09:54:38.261Z,52.71
2022-11-02T09:57:07.010Z,54.32
2022-11-02T09:59:33.661Z,56.23
2022-11-02T10:02:11.611Z,57.21
2022-11-02T10:04:56.722Z,56.49
2022-11-02T10:07:25.981Z,56.77
2022-11-02T10:09:57.864Z,55.06
2022-11-02T10:12:28.982Z,49.35
2022-11-02T10:14:55.544Z,48.44
2022-11-02T10:17:24.859Z,49.70
2022-11-02T10:19:55.087Z,48.85
2022-11-02T10:22:24.616Z,45.91
2022-11-02T10:24:53.314Z,43.84
2022-11-02T10:27:27.516Z,44.74
2022-11-02T10:30:04.551Z,46.32
2022-11-02T10:32:32.364Z,44.60
2022-11-02T10:35:17.411Z,46.12
2022-11-02T10:37:49.324Z,44.92
2022-11-02T10:40:34.203Z,43.11
2022-11-02T10:43:28.216Z,44.24
2022-11-02T10:46:09.847Z,45.54
2022-11-02T10:48:39.474Z,47.43
2022-11-02T11:51:02.814Z,47.14
2022-11-02T11:53:29.823Z,41.70
2022-11-02T11:55:59.987Z,39.47
2022-11-02T11:58:27.565Z,38.23
2022-11-02T12:15:13.796Z,40.83
2022-11-02T12:35:35.057Z,32.05
2022-11-02T12:58:37.497Z,30.75
2022-11-02T13:22:47.486Z,36.52
2022-11-02T13:48:48.455Z,32.80
2022-11-02T13:51:23.083Z,32.30
2022-11-02T13:53:53.365Z,32.53
2022-11-02T13:56:25.581Z,34.47
2022-11-02T13:59:00.990Z,36.37
2022-11-02T14:01:28.757Z,34.85
2022-11-02T14:04:02.761Z,36.65
2022-11-02T14:06:30.351Z,34.58
2022-11-02T14:08:58.703Z,33.91
2022-11-02T15:01:06.478Z,44.86
2022-11-02T15:03:35.140Z,44.86
2022-11-02T15:19:51.934Z,50.05
2022-11-02T15:22:34.134Z,50.17
2022-11-02T15:25:05.455Z,50.87
2022-11-02T15:27:32.717Z,50.67
2022-11-02T15:30:00.410Z,51.62
2022-11-02T15:32:28.896Z,51.65
2022-11-02T15:34:55.766Z,52.18
2022-11-02T15:37:23.797Z,52.93
2022-11-02T15:39:51.834Z,53.10
2022-11-02T15:45:52.868Z,53.28
2022-11-02T15:48:26.296Z,52.96
2022-11-02T15:51:07.902Z,54.53
2022-11-02T15:53:56.140Z,54.89
2022-11-02T15:56:25.554Z,55.34
2022-11-02T15:59:04.005Z,55.93
2022-11-02T16:01:30.759Z,55.70
2022-11-02T16:03:59.003Z,56.01
2022-11-02T16:06:29.785Z,56.68
2022-11-02T16:09:00.170Z,57.63
2022-11-02T16:11:26.942Z,57.33
2022-11-02T16:14:08.599Z,58.43
2022-11-02T16:16:45.883Z,59.14
2022-11-02T16:19:21.908Z,58.96
2022-11-02T16:21:49.524Z,59.67
2022-11-02T16:24:16.798Z,59.45
2022-11-02T16:26:44.999Z,60.31
2022-11-02T16:29:12.225Z,60.41
2022-11-02T16:31:40.931Z,60.57
2022-11-02T16:34:20.256Z,60.92
2022-11-02T16:36:47.742Z,60.91
2022-11-02T16:39:16.700Z,61.63
2022-11-02T16:41:47.343Z,61.55
2022-11-02T16:44:20.226Z,62.72
2022-11-02T16:46:52.259Z,62.40
2022-11-02T16:49:19.988Z,63.43
2022-11-02T16:51:50.617Z,63.57
2022-11-02T16:54:27.844Z,64.11
2022-11-02T16:56:55.827Z,64.43
2022-11-02T16:59:23.963Z,64.13
2022-11-02T17:01:50.803Z,64.30
2022-11-02T17:04:19.933Z,64.66
2022-11-02T17:06:47.830Z,64.95
2022-11-02T17:09:23.964Z,65.21
2022-11-02T17:11:50.902Z,65.36
2022-11-02T17:14:19.410Z,65.44
2022-11-02T17:17:00.871Z,65.91
2022-11-02T17:19:47.727Z,66.39
